sensor_id;sensor_type;location;lat;lon;timestamp;P1;durP1;ratioP1;P2;durP2;ratioP2
14141;SDS011;7151;52.246;4.820;2022-08-21T00:02:13;4.13;;;2.20;;
14141;SDS011;7151;52.246;4.820;2022-08-21T00:04:40;3.53;;;2.00;;
14141;SDS011;7151;52.246;4.820;2022-08-21T00:07:06;3.63;;;1.97;;
14141;SDS011;7151;52.246;4.820;2022-08-21T00:09:31;3.63;;;2.50;;
14141;SDS011;7151;52.246;4.820;2022-08-21T00:11:57;2.53;;;2.07;;
14141;SDS011;7151;52.246;4.820;2022-08-21T00:14:22;4.40;;;2.77;;
14141;SDS011;7151;52.246;4.820;2022-08-21T00:16:48;4.87;;;2.80;;
14141;SDS011;7151;52.246;4.820;2022-08-21T00:19:14;2.63;;;2.00;;
14141;SDS011;7151;52.246;4.820;2022-08-21T00:21:39;3.07;;;2.20;;
14141;SDS011;7151;52.246;4.820;2022-08-21T00:24:05;5.47;;;2.60;;
14141;SDS011;7151;52.246;4.820;2022-08-21T00:26:31;7.00;;;2.67;;
14141;SDS011;7151;52.246;4.820;2022-08-21T00:28:57;4.40;;;2.90;;
14141;SDS011;7151;52.246;4.820;2022-08-21T00:31:23;5.13;;;2.87;;
14141;SDS011;7151;52.246;4.820;2022-08-21T00:33:48;6.80;;;2.90;;
14141;SDS011;7151;52.246;4.820;2022-08-21T00:36:14;2.77;;;2.27;;
14141;SDS011;7151;52.246;4.820;2022-08-21T00:38:39;7.50;;;2.80;;
14141;SDS011;7151;52.246;4.820;2022-08-21T00:41:06;3.33;;;2.33;;
14141;SDS011;7151;52.246;4.820;2022-08-21T00:43:34;3.93;;;2.30;;
14141;SDS011;7151;52.246;4.820;2022-08-21T00:46:01;4.80;;;2.63;;
14141;SDS011;7151;52.246;4.820;2022-08-21T00:48:28;7.30;;;2.80;;
14141;SDS011;7151;52.246;4.820;2022-08-21T00:51:01;5.40;;;2.67;;
14141;SDS011;7151;52.246;4.820;2022-08-21T00:53:34;4.33;;;2.97;;
14141;SDS011;7151;52.246;4.820;2022-08-21T00:56:03;3.97;;;2.03;;
14141;SDS011;7151;52.246;4.820;2022-08-21T00:58:31;4.17;;;2.90;;
14141;SDS011;7151;52.246;4.820;2022-08-21T01:01:00;6.50;;;2.47;;
14141;SDS011;7151;52.246;4.820;2022-08-21T01:03:28;5.00;;;2.90;;
14141;SDS011;7151;52.246;4.820;2022-08-21T01:05:53;5.57;;;2.43;;
14141;SDS011;7151;52.246;4.820;2022-08-21T01:08:19;4.57;;;2.63;;
14141;SDS011;7151;52.246;4.820;2022-08-21T01:10:46;3.33;;;2.80;;
14141;SDS011;7151;52.246;4.820;2022-08-21T01:13:13;2.73;;;2.53;;
14141;SDS011;7151;52.246;4.820;2022-08-21T01:15:43;4.87;;;2.67;;
14141;SDS011;7151;52.246;4.820;2022-08-21T01:18:11;4.87;;;2.83;;
14141;SDS011;7151;52.246;4.820;2022-08-21T01:20:37;10.63;;;3.13;;
14141;SDS011;7151;52.246;4.820;2022-08-21T01:23:06;3.13;;;2.33;;
14141;SDS011;7151;52.246;4.820;2022-08-21T01:25:32;4.73;;;2.50;;
14141;SDS011;7151;52.246;4.820;2022-08-21T01:27:59;3.33;;;2.67;;
14141;SDS011;7151;52.246;4.820;2022-08-21T01:30:31;7.30;;;2.40;;
14141;SDS011;7151;52.246;4.820;2022-08-21T01:32:59;2.60;;;2.13;;
14141;SDS011;7151;52.246;4.820;2022-08-21T01:35:25;5.80;;;2.80;;
14141;SDS011;7151;52.246;4.820;2022-08-21T01:37:51;3.60;;;2.30;;
14141;SDS011;7151;52.246;4.820;2022-08-21T01:40:17;4.17;;;2.20;;
14141;SDS011;7151;52.246;4.820;2022-08-21T01:42:44;5.77;;;2.53;;
14141;SDS011;7151;52.246;4.820;2022-08-21T01:45:11;6.23;;;2.87;;
14141;SDS011;7151;52.246;4.820;2022-08-21T01:47:38;4.80;;;2.53;;
14141;SDS011;7151;52.246;4.820;2022-08-21T01:50:05;6.30;;;2.50;;
14141;SDS011;7151;52.246;4.820;2022-08-21T01:52:32;4.67;;;2.67;;
14141;SDS011;7151;52.246;4.820;2022-08-21T01:54:57;4.50;;;2.70;;
14141;SDS011;7151;52.246;4.820;2022-08-21T01:57:23;3.40;;;2.33;;
14141;SDS011;7151;52.246;4.820;2022-08-21T01:59:49;5.33;;;2.33;;
14141;SDS011;7151;52.246;4.820;2022-08-21T02:02:15;3.13;;;2.30;;
14141;SDS011;7151;52.246;4.820;2022-08-21T02:04:40;4.30;;;2.13;;
14141;SDS011;7151;52.246;4.820;2022-08-21T02:07:06;4.20;;;2.37;;
14141;SDS011;7151;52.246;4.820;2022-08-21T02:09:32;2.87;;;2.10;;
14141;SDS011;7151;52.246;4.820;2022-08-21T02:11:58;4.00;;;2.40;;
14141;SDS011;7151;52.246;4.820;2022-08-21T02:14:24;3.07;;;2.20;;
14141;SDS011;7151;52.246;4.820;2022-08-21T02:16:50;6.83;;;2.57;;
14141;SDS011;7151;52.246;4.820;2022-08-21T02:19:16;3.30;;;2.30;;
14141;SDS011;7151;52.246;4.820;2022-08-21T02:21:42;5.03;;;2.33;;
14141;SDS011;7151;52.246;4.820;2022-08-21T02:24:08;6.90;;;2.67;;
14141;SDS011;7151;52.246;4.820;2022-08-21T02:26:34;6.30;;;2.60;;
14141;SDS011;7151;52.246;4.820;2022-08-21T02:29:00;5.93;;;3.40;;
14141;SDS011;7151;52.246;4.820;2022-08-21T02:31:25;4.60;;;3.17;;
14141;SDS011;7151;52.246;4.820;2022-08-21T02:33:51;6.40;;;3.33;;
14141;SDS011;7151;52.246;4.820;2022-08-21T02:36:17;6.67;;;3.80;;
14141;SDS011;7151;52.246;4.820;2022-08-21T02:38:43;4.67;;;3.47;;
14141;SDS011;7151;52.246;4.820;2022-08-21T02:41:11;4.43;;;3.27;;
14141;SDS011;7151;52.246;4.820;2022-08-21T02:43:41;9.63;;;3.40;;
14141;SDS011;7151;52.246;4.820;2022-08-21T02:46:08;7.70;;;2.90;;
14141;SDS011;7151;52.246;4.820;2022-08-21T02:48:36;4.17;;;2.37;;
14141;SDS011;7151;52.246;4.820;2022-08-21T02:51:06;9.93;;;3.23;;
14141;SDS011;7151;52.246;4.820;2022-08-21T02:53:37;6.40;;;3.27;;
14141;SDS011;7151;52.246;4.820;2022-08-21T02:56:04;3.07;;;2.70;;
14141;SDS011;7151;52.246;4.820;2022-08-21T02:58:32;5.17;;;2.83;;
14141;SDS011;7151;52.246;4.820;2022-08-21T03:01:00;5.27;;;2.73;;
14141;SDS011;7151;52.246;4.820;2022-08-21T03:03:26;3.50;;;2.53;;
14141;SDS011;7151;52.246;4.820;2022-08-21T03:05:53;7.27;;;2.77;;
14141;SDS011;7151;52.246;4.820;2022-08-21T03:08:19;4.47;;;2.50;;
14141;SDS011;7151;52.246;4.820;2022-08-21T03:10:47;2.03;;;1.90;;
14141;SDS011;7151;52.246;4.820;2022-08-21T03:13:15;5.17;;;2.70;;
14141;SDS011;7151;52.246;4.820;2022-08-21T03:15:42;3.30;;;2.60;;
14141;SDS011;7151;52.246;4.820;2022-08-21T03:18:08;3.80;;;2.67;;
14141;SDS011;7151;52.246;4.820;2022-08-21T03:20:35;5.33;;;2.97;;
14141;SDS011;7151;52.246;4.820;2022-08-21T03:23:02;5.37;;;2.73;;
14141;SDS011;7151;52.246;4.820;2022-08-21T03:25:29;7.93;;;2.83;;
14141;SDS011;7151;52.246;4.820;2022-08-21T03:27:58;6.20;;;3.60;;
14141;SDS011;7151;52.246;4.820;2022-08-21T03:30:24;6.23;;;2.90;;
14141;SDS011;7151;52.246;4.820;2022-08-21T03:32:50;5.80;;;2.83;;
14141;SDS011;7151;52.246;4.820;2022-08-21T03:35:16;5.40;;;2.67;;
14141;SDS011;7151;52.246;4.820;2022-08-21T03:37:43;3.63;;;2.57;;
14141;SDS011;7151;52.246;4.820;2022-08-21T03:40:09;5.43;;;2.70;;
14141;SDS011;7151;52.246;4.820;2022-08-21T03:42:36;4.03;;;2.77;;
14141;SDS011;7151;52.246;4.820;2022-08-21T03:45:03;5.13;;;2.43;;
14141;SDS011;7151;52.246;4.820;2022-08-21T03:47:29;3.80;;;2.73;;
14141;SDS011;7151;52.246;4.820;2022-08-21T03:49:55;7.40;;;3.33;;
14141;SDS011;7151;52.246;4.820;2022-08-21T03:52:21;3.93;;;2.77;;
14141;SDS011;7151;52.246;4.820;2022-08-21T03:54:47;5.10;;;2.77;;
14141;SDS011;7151;52.246;4.820;2022-08-21T03:57:12;4.03;;;2.60;;
14141;SDS011;7151;52.246;4.820;2022-08-21T03:59:38;6.17;;;2.93;;
14141;SDS011;7151;52.246;4.820;2022-08-21T04:02:07;4.20;;;2.50;;
14141;SDS011;7151;52.246;4.820;2022-08-21T04:04:34;6.47;;;2.73;;
14141;SDS011;7151;52.246;4.820;2022-08-21T04:07:00;5.93;;;2.67;;
14141;SDS011;7151;52.246;4.820;2022-08-21T04:09:26;4.80;;;2.93;;
14141;SDS011;7151;52.246;4.820;2022-08-21T04:11:52;4.63;;;2.33;;
14141;SDS011;7151;52.246;4.820;2022-08-21T04:14:19;4.93;;;2.50;;
14141;SDS011;7151;52.246;4.820;2022-08-21T04:16:45;4.27;;;2.83;;
14141;SDS011;7151;52.246;4.820;2022-08-21T04:19:11;6.70;;;2.60;;
14141;SDS011;7151;52.246;4.820;2022-08-21T04:21:40;4.90;;;2.20;;
14141;SDS011;7151;52.246;4.820;2022-08-21T04:24:07;6.10;;;2.40;;
14141;SDS011;7151;52.246;4.820;2022-08-21T04:26:35;4.67;;;2.50;;
14141;SDS011;7151;52.246;4.820;2022-08-21T04:29:01;3.93;;;2.27;;
14141;SDS011;7151;52.246;4.820;2022-08-21T04:31:28;7.20;;;2.27;;
14141;SDS011;7151;52.246;4.820;2022-08-21T04:33:53;5.43;;;2.37;;
14141;SDS011;7151;52.246;4.820;2022-08-21T04:36:20;4.27;;;2.03;;
14141;SDS011;7151;52.246;4.820;2022-08-21T04:38:46;4.30;;;2.00;;
14141;SDS011;7151;52.246;4.820;2022-08-21T04:41:11;3.77;;;2.30;;
14141;SDS011;7151;52.246;4.820;2022-08-21T04:43:37;5.63;;;2.57;;
14141;SDS011;7151;52.246;4.820;2022-08-21T04:46:04;3.30;;;2.43;;
14141;SDS011;7151;52.246;4.820;2022-08-21T04:48:30;2.97;;;2.03;;
14141;SDS011;7151;52.246;4.820;2022-08-21T04:51:15;4.10;;;2.07;;
14141;SDS011;7151;52.246;4.820;2022-08-21T04:53:49;4.67;;;2.13;;
14141;SDS011;7151;52.246;4.820;2022-08-21T04:56:21;6.80;;;2.10;;
14141;SDS011;7151;52.246;4.820;2022-08-21T04:59:18;3.80;;;1.60;;
14141;SDS011;7151;52.246;4.820;2022-08-21T05:01:47;3.57;;;2.27;;
14141;SDS011;7151;52.246;4.820;2022-08-21T05:04:14;5.30;;;2.07;;
14141;SDS011;7151;52.246;4.820;2022-08-21T05:06:43;4.83;;;2.20;;
14141;SDS011;7151;52.246;4.820;2022-08-21T05:09:12;5.03;;;1.97;;
14141;SDS011;7151;52.246;4.820;2022-08-21T05:11:40;2.60;;;1.60;;
14141;SDS011;7151;52.246;4.820;2022-08-21T05:14:07;3.73;;;1.80;;
14141;SDS011;7151;52.246;4.820;2022-08-21T05:16:32;6.00;;;1.67;;
14141;SDS011;7151;52.246;4.820;2022-08-21T05:18:58;5.37;;;2.00;;
14141;SDS011;7151;52.246;4.820;2022-08-21T05:21:23;5.03;;;2.07;;
14141;SDS011;7151;52.246;4.820;2022-08-21T05:23:49;2.20;;;1.90;;
14141;SDS011;7151;52.246;4.820;2022-08-21T05:26:15;6.00;;;2.07;;
14141;SDS011;7151;52.246;4.820;2022-08-21T05:28:40;4.80;;;2.20;;
14141;SDS011;7151;52.246;4.820;2022-08-21T05:31:06;5.03;;;2.23;;
14141;SDS011;7151;52.246;4.820;2022-08-21T05:33:31;3.30;;;1.90;;
14141;SDS011;7151;52.246;4.820;2022-08-21T05:35:57;2.13;;;1.63;;
14141;SDS011;7151;52.246;4.820;2022-08-21T05:38:23;4.53;;;2.37;;
14141;SDS011;7151;52.246;4.820;2022-08-21T05:40:50;4.23;;;1.80;;
14141;SDS011;7151;52.246;4.820;2022-08-21T05:43:16;7.77;;;2.00;;
14141;SDS011;7151;52.246;4.820;2022-08-21T05:45:42;2.60;;;1.87;;
14141;SDS011;7151;52.246;4.820;2022-08-21T05:48:09;6.73;;;1.60;;
14141;SDS011;7151;52.246;4.820;2022-08-21T05:50:37;2.83;;;1.70;;
14141;SDS011;7151;52.246;4.820;2022-08-21T05:53:03;3.20;;;2.00;;
14141;SDS011;7151;52.246;4.820;2022-08-21T05:55:29;3.47;;;1.90;;
14141;SDS011;7151;52.246;4.820;2022-08-21T05:57:55;2.30;;;1.80;;
14141;SDS011;7151;52.246;4.820;2022-08-21T06:00:21;5.83;;;1.90;;
14141;SDS011;7151;52.246;4.820;2022-08-21T06:02:47;3.63;;;1.77;;
14141;SDS011;7151;52.246;4.820;2022-08-21T06:05:14;4.27;;;1.80;;
14141;SDS011;7151;52.246;4.820;2022-08-21T06:07:41;2.70;;;1.50;;
14141;SDS011;7151;52.246;4.820;2022-08-21T06:10:06;5.77;;;1.97;;
14141;SDS011;7151;52.246;4.820;2022-08-21T06:12:32;3.93;;;1.77;;
14141;SDS011;7151;52.246;4.820;2022-08-21T06:14:58;5.03;;;2.10;;
14141;SDS011;7151;52.246;4.820;2022-08-21T06:17:23;4.07;;;1.80;;
14141;SDS011;7151;52.246;4.820;2022-08-21T06:19:52;3.03;;;1.83;;
14141;SDS011;7151;52.246;4.820;2022-08-21T06:22:18;4.17;;;2.00;;
14141;SDS011;7151;52.246;4.820;2022-08-21T06:24:44;5.47;;;1.80;;
14141;SDS011;7151;52.246;4.820;2022-08-21T06:27:10;3.60;;;2.07;;
14141;SDS011;7151;52.246;4.820;2022-08-21T06:29:35;5.27;;;1.90;;
14141;SDS011;7151;52.246;4.820;2022-08-21T06:32:01;6.23;;;2.20;;
14141;SDS011;7151;52.246;4.820;2022-08-21T06:34:27;4.80;;;2.27;;
14141;SDS011;7151;52.246;4.820;2022-08-21T06:36:53;3.57;;;2.03;;
14141;SDS011;7151;52.246;4.820;2022-08-21T06:39:19;5.20;;;2.50;;
14141;SDS011;7151;52.246;4.820;2022-08-21T06:41:44;4.07;;;2.00;;
14141;SDS011;7151;52.246;4.820;2022-08-21T06:44:10;3.60;;;2.13;;
14141;SDS011;7151;52.246;4.820;2022-08-21T06:46:36;4.47;;;2.30;;
14141;SDS011;7151;52.246;4.820;2022-08-21T06:49:01;8.13;;;2.77;;
14141;SDS011;7151;52.246;4.820;2022-08-21T06:51:27;4.43;;;2.47;;
14141;SDS011;7151;52.246;4.820;2022-08-21T06:53:53;5.70;;;2.43;;
14141;SDS011;7151;52.246;4.820;2022-08-21T06:56:19;4.37;;;2.03;;
14141;SDS011;7151;52.246;4.820;2022-08-21T06:58:45;7.47;;;2.30;;
14141;SDS011;7151;52.246;4.820;2022-08-21T07:01:11;7.40;;;2.60;;
14141;SDS011;7151;52.246;4.820;2022-08-21T07:03:38;9.87;;;2.60;;
14141;SDS011;7151;52.246;4.820;2022-08-21T07:06:06;6.37;;;2.67;;
14141;SDS011;7151;52.246;4.820;2022-08-21T07:08:33;7.60;;;2.93;;
14141;SDS011;7151;52.246;4.820;2022-08-21T07:11:00;5.20;;;2.57;;
14141;SDS011;7151;52.246;4.820;2022-08-21T07:13:28;7.70;;;2.83;;
14141;SDS011;7151;52.246;4.820;2022-08-21T07:15:53;6.07;;;2.93;;
14141;SDS011;7151;52.246;4.820;2022-08-21T07:18:19;3.90;;;2.13;;
14141;SDS011;7151;52.246;4.820;2022-08-21T07:20:45;5.80;;;2.60;;
14141;SDS011;7151;52.246;4.820;2022-08-21T07:23:30;8.20;;;2.67;;
14141;SDS011;7151;52.246;4.820;2022-08-21T07:25:58;7.33;;;2.80;;
14141;SDS011;7151;52.246;4.820;2022-08-21T07:28:25;7.80;;;2.60;;
14141;SDS011;7151;52.246;4.820;2022-08-21T07:30:52;6.30;;;2.83;;
14141;SDS011;7151;52.246;4.820;2022-08-21T07:33:20;6.67;;;3.07;;
14141;SDS011;7151;52.246;4.820;2022-08-21T07:35:46;5.57;;;2.80;;
14141;SDS011;7151;52.246;4.820;2022-08-21T07:38:11;7.77;;;2.20;;
14141;SDS011;7151;52.246;4.820;2022-08-21T07:40:37;5.20;;;2.37;;
14141;SDS011;7151;52.246;4.820;2022-08-21T07:43:03;5.57;;;2.77;;
14141;SDS011;7151;52.246;4.820;2022-08-21T07:45:29;8.67;;;2.97;;
14141;SDS011;7151;52.246;4.820;2022-08-21T07:47:54;7.67;;;3.07;;
14141;SDS011;7151;52.246;4.820;2022-08-21T07:50:20;5.97;;;2.70;;
14141;SDS011;7151;52.246;4.820;2022-08-21T07:52:45;4.13;;;2.33;;
14141;SDS011;7151;52.246;4.820;2022-08-21T07:55:13;7.10;;;2.90;;
14141;SDS011;7151;52.246;4.820;2022-08-21T07:57:41;5.17;;;2.87;;
14141;SDS011;7151;52.246;4.820;2022-08-21T08:00:08;9.13;;;3.37;;
14141;SDS011;7151;52.246;4.820;2022-08-21T08:02:37;2.97;;;2.03;;
14141;SDS011;7151;52.246;4.820;2022-08-21T08:05:03;5.73;;;2.47;;
14141;SDS011;7151;52.246;4.820;2022-08-21T08:07:30;3.93;;;2.07;;
14141;SDS011;7151;52.246;4.820;2022-08-21T08:09:56;5.20;;;2.50;;
14141;SDS011;7151;52.246;4.820;2022-08-21T08:12:23;4.87;;;1.97;;
14141;SDS011;7151;52.246;4.820;2022-08-21T08:14:54;5.83;;;2.63;;
14141;SDS011;7151;52.246;4.820;2022-08-21T08:17:23;5.90;;;2.27;;
14141;SDS011;7151;52.246;4.820;2022-08-21T08:19:50;9.47;;;2.43;;
14141;SDS011;7151;52.246;4.820;2022-08-21T08:22:16;8.90;;;2.30;;
14141;SDS011;7151;52.246;4.820;2022-08-21T08:24:44;3.57;;;1.90;;
14141;SDS011;7151;52.246;4.820;2022-08-21T08:27:10;4.07;;;1.90;;
14141;SDS011;7151;52.246;4.820;2022-08-21T08:29:36;3.27;;;2.03;;
14141;SDS011;7151;52.246;4.820;2022-08-21T08:32:03;10.40;;;2.87;;
14141;SDS011;7151;52.246;4.820;2022-08-21T08:34:32;3.77;;;2.40;;
14141;SDS011;7151;52.246;4.820;2022-08-21T08:36:58;5.40;;;2.40;;
14141;SDS011;7151;52.246;4.820;2022-08-21T08:39:23;7.97;;;2.80;;
14141;SDS011;7151;52.246;4.820;2022-08-21T08:41:50;4.67;;;1.87;;
14141;SDS011;7151;52.246;4.820;2022-08-21T08:44:24;3.43;;;1.97;;
14141;SDS011;7151;52.246;4.820;2022-08-21T08:46:50;3.27;;;1.30;;
14141;SDS011;7151;52.246;4.820;2022-08-21T08:51:53;4.67;;;2.00;;
14141;SDS011;7151;52.246;4.820;2022-08-21T08:54:42;4.47;;;1.70;;
14141;SDS011;7151;52.246;4.820;2022-08-21T08:57:14;6.63;;;1.60;;
14141;SDS011;7151;52.246;4.820;2022-08-21T08:59:44;3.47;;;1.73;;
14141;SDS011;7151;52.246;4.820;2022-08-21T09:02:13;4.43;;;1.90;;
14141;SDS011;7151;52.246;4.820;2022-08-21T09:04:40;3.57;;;1.60;;
14141;SDS011;7151;52.246;4.820;2022-08-21T09:07:12;4.97;;;1.53;;
14141;SDS011;7151;52.246;4.820;2022-08-21T09:17:59;3.13;;;1.50;;
14141;SDS011;7151;52.246;4.820;2022-08-21T09:26:21;4.63;;;1.70;;
14141;SDS011;7151;52.246;4.820;2022-08-21T09:28:52;2.97;;;1.60;;
14141;SDS011;7151;52.246;4.820;2022-08-21T09:31:26;3.80;;;1.70;;
14141;SDS011;7151;52.246;4.820;2022-08-21T09:34:02;7.47;;;2.10;;
14141;SDS011;7151;52.246;4.820;2022-08-21T09:36:46;4.93;;;2.00;;
14141;SDS011;7151;52.246;4.820;2022-08-21T09:39:22;2.63;;;1.70;;
14141;SDS011;7151;52.246;4.820;2022-08-21T09:41:57;6.43;;;1.83;;
14141;SDS011;7151;52.246;4.820;2022-08-21T09:44:29;4.17;;;1.77;;
14141;SDS011;7151;52.246;4.820;2022-08-21T09:46:58;5.10;;;1.70;;
14141;SDS011;7151;52.246;4.820;2022-08-21T09:49:28;6.80;;;1.50;;
14141;SDS011;7151;52.246;4.820;2022-08-21T09:51:55;4.47;;;1.70;;
14141;SDS011;7151;52.246;4.820;2022-08-21T09:54:26;4.07;;;1.87;;
14141;SDS011;7151;52.246;4.820;2022-08-21T09:57:00;3.93;;;1.57;;
14141;SDS011;7151;52.246;4.820;2022-08-21T09:59:55;5.17;;;1.90;;
14141;SDS011;7151;52.246;4.820;2022-08-21T10:02:32;4.57;;;1.77;;
14141;SDS011;7151;52.246;4.820;2022-08-21T10:05:01;2.97;;;1.20;;
14141;SDS011;7151;52.246;4.820;2022-08-21T10:07:51;5.00;;;1.67;;
14141;SDS011;7151;52.246;4.820;2022-08-21T10:10:28;4.03;;;1.40;;
14141;SDS011;7151;52.246;4.820;2022-08-21T10:18:42;2.47;;;1.80;;
14141;SDS011;7151;52.246;4.820;2022-08-21T10:22:14;4.27;;;1.77;;
14141;SDS011;7151;52.246;4.820;2022-08-21T10:24:29;3.77;;;1.30;;
14141;SDS011;7151;52.246;4.820;2022-08-21T10:27:24;3.43;;;1.50;;
14141;SDS011;7151;52.246;4.820;2022-08-21T10:30:02;3.33;;;1.40;;
14141;SDS011;7151;52.246;4.820;2022-08-21T10:35:11;1.30;;;1.03;;
14141;SDS011;7151;52.246;4.820;2022-08-21T10:40:25;5.23;;;1.50;;
14141;SDS011;7151;52.246;4.820;2022-08-21T10:48:16;1.33;;;1.10;;
14141;SDS011;7151;52.246;4.820;2022-08-21T10:53:36;4.00;;;1.37;;
14141;SDS011;7151;52.246;4.820;2022-08-21T10:56:21;5.07;;;1.27;;
14141;SDS011;7151;52.246;4.820;2022-08-21T10:58:51;2.40;;;1.13;;
14141;SDS011;7151;52.246;4.820;2022-08-21T11:01:41;3.27;;;1.40;;
14141;SDS011;7151;52.246;4.820;2022-08-21T11:04:35;3.00;;;0.83;;
14141;SDS011;7151;52.246;4.820;2022-08-21T11:07:17;1.57;;;1.00;;
14141;SDS011;7151;52.246;4.820;2022-08-21T11:09:47;2.53;;;1.03;;
14141;SDS011;7151;52.246;4.820;2022-08-21T11:17:30;2.30;;;1.10;;
14141;SDS011;7151;52.246;4.820;2022-08-21T11:20:50;4.33;;;1.20;;
14141;SDS011;7151;52.246;4.820;2022-08-21T11:23:25;2.60;;;1.43;;
14141;SDS011;7151;52.246;4.820;2022-08-21T11:26:02;1.87;;;0.80;;
14141;SDS011;7151;52.246;4.820;2022-08-21T11:28:35;1.83;;;1.30;;
14141;SDS011;7151;52.246;4.820;2022-08-21T11:36:40;3.27;;;1.10;;
14141;SDS011;7151;52.246;4.820;2022-08-21T11:47:52;3.17;;;1.50;;
14141;SDS011;7151;52.246;4.820;2022-08-21T11:50:37;2.03;;;1.00;;
14141;SDS011;7151;52.246;4.820;2022-08-21T11:53:17;2.03;;;1.43;;
14141;SDS011;7151;52.246;4.820;2022-08-21T11:58:26;1.60;;;1.10;;
14141;SDS011;7151;52.246;4.820;2022-08-21T12:00:56;3.00;;;1.50;;
14141;SDS011;7151;52.246;4.820;2022-08-21T12:05:57;2.27;;;1.10;;
14141;SDS011;7151;52.246;4.820;2022-08-21T12:13:32;2.80;;;1.03;;
14141;SDS011;7151;52.246;4.820;2022-08-21T12:18:35;1.90;;;1.37;;
14141;SDS011;7151;52.246;4.820;2022-08-21T12:21:04;1.70;;;1.00;;
14141;SDS011;7151;52.246;4.820;2022-08-21T12:27:12;2.77;;;1.20;;
14141;SDS011;7151;52.246;4.820;2022-08-21T12:29:38;2.43;;;1.40;;
14141;SDS011;7151;52.246;4.820;2022-08-21T12:34:37;4.20;;;1.50;;
14141;SDS011;7151;52.246;4.820;2022-08-21T12:40:23;2.37;;;1.23;;
14141;SDS011;7151;52.246;4.820;2022-08-21T12:43:02;5.07;;;1.60;;
14141;SDS011;7151;52.246;4.820;2022-08-21T12:45:31;4.70;;;1.20;;
14141;SDS011;7151;52.246;4.820;2022-08-21T12:48:14;5.33;;;1.40;;
14141;SDS011;7151;52.246;4.820;2022-08-21T12:50:55;2.40;;;1.20;;
14141;SDS011;7151;52.246;4.820;2022-08-21T12:53:47;3.63;;;1.50;;
14141;SDS011;7151;52.246;4.820;2022-08-21T12:56:12;3.83;;;1.20;;
14141;SDS011;7151;52.246;4.820;2022-08-21T12:58:40;4.87;;;1.40;;
14141;SDS011;7151;52.246;4.820;2022-08-21T13:01:19;3.20;;;1.07;;
14141;SDS011;7151;52.246;4.820;2022-08-21T13:03:49;4.32;;;1.33;;
14141;SDS011;7151;52.246;4.820;2022-08-21T13:06:18;3.40;;;1.17;;
14141;SDS011;7151;52.246;4.820;2022-08-21T13:08:46;1.90;;;1.10;;
14141;SDS011;7151;52.246;4.820;2022-08-21T13:11:16;1.98;;;1.33;;
14141;SDS011;7151;52.246;4.820;2022-08-21T13:13:48;2.00;;;1.73;;
14141;SDS011;7151;52.246;4.820;2022-08-21T13:16:18;2.33;;;1.00;;
14141;SDS011;7151;52.246;4.820;2022-08-21T13:18:59;3.43;;;1.50;;
14141;SDS011;7151;52.246;4.820;2022-08-21T13:21:48;4.95;;;1.67;;
14141;SDS011;7151;52.246;4.820;2022-08-21T13:24:15;4.93;;;1.40;;
14141;SDS011;7151;52.246;4.820;2022-08-21T13:26:47;3.60;;;1.10;;
14141;SDS011;7151;52.246;4.820;2022-08-21T13:29:15;1.90;;;1.30;;
14141;SDS011;7151;52.246;4.820;2022-08-21T13:31:47;3.20;;;1.33;;
14141;SDS011;7151;52.246;4.820;2022-08-21T13:34:24;3.15;;;1.15;;
14141;SDS011;7151;52.246;4.820;2022-08-21T13:36:55;3.97;;;1.17;;
14141;SDS011;7151;52.246;4.820;2022-08-21T13:39:23;2.70;;;1.20;;
14141;SDS011;7151;52.246;4.820;2022-08-21T13:41:50;6.87;;;1.23;;
14141;SDS011;7151;52.246;4.820;2022-08-21T13:46:56;2.30;;;1.20;;
14141;SDS011;7151;52.246;4.820;2022-08-21T13:49:26;5.77;;;1.30;;
14141;SDS011;7151;52.246;4.820;2022-08-21T13:51:56;5.47;;;1.60;;
14141;SDS011;7151;52.246;4.820;2022-08-21T13:54:37;3.13;;;1.00;;
14141;SDS011;7151;52.246;4.820;2022-08-21T13:57:14;2.70;;;1.20;;
14141;SDS011;7151;52.246;4.820;2022-08-21T13:59:49;3.00;;;0.97;;
14141;SDS011;7151;52.246;4.820;2022-08-21T14:02:16;3.87;;;1.13;;
14141;SDS011;7151;52.246;4.820;2022-08-21T14:07:20;4.20;;;1.20;;
14141;SDS011;7151;52.246;4.820;2022-08-21T14:09:52;2.03;;;1.40;;
14141;SDS011;7151;52.246;4.820;2022-08-21T14:12:24;2.07;;;1.10;;
14141;SDS011;7151;52.246;4.820;2022-08-21T14:14:55;5.53;;;1.50;;
14141;SDS011;7151;52.246;4.820;2022-08-21T14:17:29;3.57;;;1.10;;
14141;SDS011;7151;52.246;4.820;2022-08-21T14:19:57;3.33;;;1.53;;
14141;SDS011;7151;52.246;4.820;2022-08-21T14:25:14;2.40;;;0.80;;
14141;SDS011;7151;52.246;4.820;2022-08-21T14:27:58;3.27;;;1.00;;
14141;SDS011;7151;52.246;4.820;2022-08-21T14:30:41;6.47;;;1.50;;
14141;SDS011;7151;52.246;4.820;2022-08-21T14:33:08;3.37;;;1.13;;
14141;SDS011;7151;52.246;4.820;2022-08-21T14:35:44;3.03;;;1.33;;
14141;SDS011;7151;52.246;4.820;2022-08-21T14:38:12;2.97;;;1.10;;
14141;SDS011;7151;52.246;4.820;2022-08-21T14:40:39;3.47;;;1.10;;
14141;SDS011;7151;52.246;4.820;2022-08-21T14:43:05;2.20;;;1.23;;
14141;SDS011;7151;52.246;4.820;2022-08-21T14:45:33;2.00;;;1.10;;
14141;SDS011;7151;52.246;4.820;2022-08-21T14:47:59;3.80;;;1.40;;
14141;SDS011;7151;52.246;4.820;2022-08-21T14:50:25;3.80;;;1.30;;
14141;SDS011;7151;52.246;4.820;2022-08-21T14:52:50;4.30;;;1.23;;
14141;SDS011;7151;52.246;4.820;2022-08-21T14:55:16;2.93;;;1.10;;
14141;SDS011;7151;52.246;4.820;2022-08-21T14:57:45;2.63;;;1.40;;
14141;SDS011;7151;52.246;4.820;2022-08-21T15:00:17;3.33;;;1.27;;
14141;SDS011;7151;52.246;4.820;2022-08-21T15:02:45;2.90;;;1.47;;
14141;SDS011;7151;52.246;4.820;2022-08-21T15:05:11;7.27;;;1.40;;
14141;SDS011;7151;52.246;4.820;2022-08-21T15:07:38;4.93;;;1.60;;
14141;SDS011;7151;52.246;4.820;2022-08-21T15:10:04;3.40;;;1.40;;
14141;SDS011;7151;52.246;4.820;2022-08-21T15:12:30;4.93;;;1.30;;
14141;SDS011;7151;52.246;4.820;2022-08-21T15:14:56;3.80;;;1.70;;
14141;SDS011;7151;52.246;4.820;2022-08-21T15:17:21;3.23;;;1.63;;
14141;SDS011;7151;52.246;4.820;2022-08-21T15:19:47;3.83;;;1.20;;
14141;SDS011;7151;52.246;4.820;2022-08-21T15:22:13;3.80;;;1.70;;
14141;SDS011;7151;52.246;4.820;2022-08-21T15:24:38;2.80;;;1.10;;
14141;SDS011;7151;52.246;4.820;2022-08-21T15:27:05;4.37;;;1.77;;
14141;SDS011;7151;52.246;4.820;2022-08-21T15:29:32;3.53;;;1.10;;
14141;SDS011;7151;52.246;4.820;2022-08-21T15:31:59;4.40;;;1.40;;
14141;SDS011;7151;52.246;4.820;2022-08-21T15:34:42;3.30;;;1.13;;
14141;SDS011;7151;52.246;4.820;2022-08-21T15:37:08;1.67;;;1.20;;
14141;SDS011;7151;52.246;4.820;2022-08-21T15:39:34;2.20;;;1.10;;
14141;SDS011;7151;52.246;4.820;2022-08-21T15:42:01;4.17;;;1.40;;
14141;SDS011;7151;52.246;4.820;2022-08-21T15:44:28;2.20;;;1.40;;
14141;SDS011;7151;52.246;4.820;2022-08-21T15:46:54;2.53;;;1.10;;
14141;SDS011;7151;52.246;4.820;2022-08-21T15:49:20;3.63;;;1.27;;
14141;SDS011;7151;52.246;4.820;2022-08-21T15:51:47;6.13;;;1.20;;
14141;SDS011;7151;52.246;4.820;2022-08-21T15:54:12;1.50;;;1.40;;
14141;SDS011;7151;52.246;4.820;2022-08-21T15:56:38;2.13;;;1.30;;
14141;SDS011;7151;52.246;4.820;2022-08-21T15:59:12;3.33;;;1.50;;
14141;SDS011;7151;52.246;4.820;2022-08-21T16:01:41;4.70;;;1.37;;
14141;SDS011;7151;52.246;4.820;2022-08-21T16:04:08;6.37;;;1.67;;
14141;SDS011;7151;52.246;4.820;2022-08-21T16:06:34;6.00;;;1.40;;
14141;SDS011;7151;52.246;4.820;2022-08-21T16:09:00;3.33;;;1.30;;
14141;SDS011;7151;52.246;4.820;2022-08-21T16:11:27;1.67;;;1.30;;
14141;SDS011;7151;52.246;4.820;2022-08-21T16:13:53;8.57;;;2.00;;
14141;SDS011;7151;52.246;4.820;2022-08-21T16:16:20;2.87;;;1.63;;
14141;SDS011;7151;52.246;4.820;2022-08-21T16:18:48;5.40;;;1.77;;
14141;SDS011;7151;52.246;4.820;2022-08-21T16:21:15;5.77;;;1.60;;
14141;SDS011;7151;52.246;4.820;2022-08-21T16:23:41;5.10;;;1.60;;
14141;SDS011;7151;52.246;4.820;2022-08-21T16:26:07;3.90;;;1.40;;
14141;SDS011;7151;52.246;4.820;2022-08-21T16:28:36;3.57;;;1.43;;
14141;SDS011;7151;52.246;4.820;2022-08-21T16:31:03;1.87;;;1.10;;
14141;SDS011;7151;52.246;4.820;2022-08-21T16:33:40;5.30;;;1.47;;
14141;SDS011;7151;52.246;4.820;2022-08-21T16:36:08;3.53;;;1.37;;
14141;SDS011;7151;52.246;4.820;2022-08-21T16:38:35;3.30;;;0.97;;